Time;durP1;ratioP1;P1;durP2;ratioP2;P2;SDS_P1;SDS_P2;PMS_P1;PMS_P2;Temp;Humidity;BMP_temperature;BMP_pressure;BME280_temperature;BME280_humidity;BME280_pressure;Samples;Min_cycle;Max_cycle;Signal;HPM_P1;HPM_P2
2021/03/10 00:01:20;;;;;;;14.00;7.57;;;6.70;99.90;;;;;;4153646;28;20406;-70
2021/03/10 00:03:21;;;;;;;14.75;7.63;;;6.60;99.90;;;;;;4163760;28;20041;-71
2021/03/10 00:05:22;;;;;;;15.23;8.23;;;6.60;99.90;;;;;;4154542;28;20062;-70
2021/03/10 00:07:24;;;;;;;13.93;7.47;;;6.60;99.90;;;;;;4154732;28;20037;-70
2021/03/10 00:09:25;;;;;;;;;;;6.60;99.90;;;;;;4159214;28;20037;-70
2021/03/10 00:11:25;;;;;;;13.65;8.27;;;6.60;99.90;;;;;;4157737;28;19983;-70
2021/03/10 00:13:26;;;;;;;14.77;7.68;;;6.60;99.90;;;;;;4152059;28;20057;-70
2021/03/10 00:15:26;;;;;;;14.55;7.25;;;6.60;99.90;;;;;;4150095;28;20046;-70
2021/03/10 00:17:27;;;;;;;13.60;7.57;;;6.60;99.90;;;;;;4155428;28;20037;-70
2021/03/10 00:19:29;;;;;;;12.68;7.70;;;6.60;99.90;;;;;;4147668;28;20029;-70
2021/03/10 00:21:29;;;;;;;15.52;7.88;;;6.60;99.90;;;;;;4155574;28;20504;-70
2021/03/10 00:23:30;;;;;;;13.88;7.82;;;6.60;99.90;;;;;;4152843;28;20686;-71
2021/03/10 00:25:30;;;;;;;13.43;7.68;;;6.50;99.90;;;;;;4151365;28;20044;-70
2021/03/10 00:27:31;;;;;;;15.60;8.60;;;6.50;99.90;;;;;;4155462;28;20045;-71
2021/03/10 00:29:32;;;;;;;14.52;8.13;;;6.50;99.90;;;;;;4150825;28;20042;-70
2021/03/10 00:31:32;;;;;;;12.85;7.28;;;6.50;99.90;;;;;;4144159;28;20046;-70
2021/03/10 00:33:33;;;;;;;11.63;7.07;;;6.50;99.90;;;;;;4157150;28;20610;-70
2021/03/10 00:35:34;;;;;;;10.15;6.43;;;6.50;99.90;;;;;;4150755;28;20501;-71
2021/03/10 00:37:35;;;;;;;12.15;7.20;;;6.40;99.90;;;;;;4155604;28;20157;-70
2021/03/10 00:39:35;;;;;;;11.43;6.53;;;6.40;99.90;;;;;;4154511;28;20469;-70
2021/03/10 00:41:36;;;;;;;11.07;7.40;;;6.40;99.90;;;;;;4149311;28;20034;-70
2021/03/10 00:43:37;;;;;;;11.02;6.97;;;6.40;99.90;;;;;;4156594;28;20048;-70
2021/03/10 00:45:37;;;;;;;11.73;7.72;;;6.40;99.90;;;;;;4157499;28;20453;-70
2021/03/10 00:47:38;;;;;;;12.35;7.53;;;6.40;99.90;;;;;;4157298;28;20025;-70
2021/03/10 00:49:40;;;;;;;11.02;7.10;;;6.40;99.90;;;;;;4156776;28;20385;-70
2021/03/10 00:51:40;;;;;;;12.37;7.13;;;6.40;99.90;;;;;;4155635;28;20033;-70
2021/03/10 00:53:42;;;;;;;13.90;7.80;;;6.30;99.90;;;;;;4158265;28;20279;-70
2021/03/10 00:55:42;;;;;;;15.00;8.68;;;6.30;99.90;;;;;;4150907;28;20037;-70
2021/03/10 00:57:43;;;;;;;14.15;8.20;;;6.30;99.90;;;;;;4156537;28;20030;-70
2021/03/10 00:59:44;;;;;;;16.38;8.55;;;6.30;99.90;;;;;;4157294;28;20517;-70
2021/03/10 01:01:44;;;;;;;14.13;7.25;;;6.20;99.90;;;;;;4156922;28;20041;-70
2021/03/10 01:03:45;;;;;;;12.82;7.70;;;6.20;99.90;;;;;;4150607;28;20367;-70
2021/03/10 01:05:45;;;;;;;12.80;7.70;;;6.20;99.90;;;;;;4152467;28;20076;-70
2021/03/10 01:07:46;;;;;;;14.57;8.75;;;6.10;99.90;;;;;;4155070;28;20128;-70
2021/03/10 01:09:47;;;;;;;13.85;8.10;;;6.10;99.90;;;;;;4146470;28;20121;-70
2021/03/10 01:11:47;;;;;;;13.32;7.78;;;6.10;99.90;;;;;;4152710;28;20040;-70
2021/03/10 01:13:48;;;;;;;11.68;7.63;;;6.00;99.90;;;;;;4155356;28;20049;-70
2021/03/10 01:15:49;;;;;;;16.42;9.20;;;6.00;99.90;;;;;;4148233;28;20033;-70
2021/03/10 01:17:49;;;;;;;13.68;8.25;;;6.00;99.90;;;;;;4151357;28;20042;-70
2021/03/10 01:19:50;;;;;;;13.68;7.68;;;5.90;99.90;;;;;;4150920;28;20042;-70
2021/03/10 01:21:51;;;;;;;12.30;7.72;;;5.90;99.90;;;;;;4151028;28;20041;-70
2021/03/10 01:23:52;;;;;;;16.27;8.60;;;5.90;99.90;;;;;;4158010;28;20033;-70
2021/03/10 01:25:52;;;;;;;13.60;8.20;;;5.90;99.90;;;;;;4153775;28;20034;-70
2021/03/10 01:27:53;;;;;;;10.95;7.32;;;5.90;99.90;;;;;;4158089;28;20741;-70
2021/03/10 01:29:54;;;;;;;11.93;7.50;;;5.80;99.90;;;;;;4152325;28;20033;-70
2021/03/10 01:31:54;;;;;;;13.18;8.18;;;5.80;99.90;;;;;;4159026;28;20482;-70
2021/03/10 01:33:55;;;;;;;12.98;7.65;;;5.80;99.90;;;;;;4156542;28;20073;-70
2021/03/10 01:35:56;;;;;;;13.35;7.30;;;5.80;99.90;;;;;;4155990;28;20375;-70
2021/03/10 01:37:57;;;;;;;14.38;8.20;;;5.80;99.90;;;;;;4157915;28;20040;-70
2021/03/10 01:39:58;;;;;;;12.63;7.60;;;5.80;99.90;;;;;;4159011;28;20064;-70
2021/03/10 01:41:58;;;;;;;14.20;7.82;;;5.80;99.90;;;;;;4159062;28;20362;-70
2021/03/10 01:43:59;;;;;;;13.88;8.38;;;5.80;99.90;;;;;;4157232;28;20029;-70
2021/03/10 01:46:00;;;;;;;11.68;7.10;;;5.80;99.90;;;;;;4158784;28;20029;-70
2021/03/10 01:48:05;;;;;;;11.38;7.22;;;5.80;99.90;;;;;;4158888;28;20490;-70
2021/03/10 01:50:06;;;;;;;15.18;8.93;;;5.70;99.90;;;;;;4162356;28;20485;-70
2021/03/10 01:52:08;;;;;;;13.40;8.40;;;5.80;99.90;;;;;;4153274;28;20030;-70
2021/03/10 01:54:08;;;;;;;15.63;8.68;;;5.80;99.90;;;;;;4158266;28;20532;-70
2021/03/10 01:56:10;;;;;;;14.00;8.05;;;5.70;99.90;;;;;;4164103;28;20053;-70
2021/03/10 01:58:12;;;;;;;15.13;9.10;;;5.70;99.90;;;;;;4162352;28;20107;-70
2021/03/10 02:00:13;;;;;;;15.45;9.63;;;5.80;99.90;;;;;;4157783;28;20520;-70
2021/03/10 02:02:14;;;;;;;15.25;9.23;;;5.70;99.90;;;;;;4153862;28;20021;-70
2021/03/10 02:04:16;;;;;;;13.73;9.20;;;5.70;99.90;;;;;;4156089;28;20088;-70
2021/03/10 02:06:34;;;;;;;18.27;9.65;;;5.80;99.90;;;;;;4157810;28;20428;-70
2021/03/10 02:08:52;;;;;;;15.60;9.10;;;5.70;99.90;;;;;;4162001;28;20090;-70
2021/03/10 02:10:59;;;;;;;10.80;7.45;;;5.70;99.90;;;;;;4162409;28;20029;-70
2021/03/10 02:13:25;;;;;;;11.32;6.97;;;5.70;99.90;;;;;;4156584;28;20037;-70
2021/03/10 02:15:51;;;;;;;13.52;7.70;;;5.70;99.90;;;;;;4141046;28;20049;-70
2021/03/10 02:18:02;;;;;;;13.43;8.10;;;5.70;99.90;;;;;;4150852;28;20029;-71
2021/03/10 02:20:17;;;;;;;14.13;8.15;;;5.70;99.90;;;;;;4191025;28;20095;-70
2021/03/10 02:22:32;;;;;;;12.35;8.25;;;5.70;99.90;;;;;;4152386;28;20121;-70
2021/03/10 02:24:56;;;;;;;13.23;8.38;;;5.80;99.90;;;;;;4154892;28;20046;-70
2021/03/10 02:27:15;;;;;;;15.32;9.20;;;5.80;99.90;;;;;;4157732;28;20034;-70
2021/03/10 02:29:17;;;;;;;16.42;9.75;;;5.90;99.90;;;;;;4139471;28;20037;-70
2021/03/10 02:31:18;;;;;;;16.02;9.75;;;5.90;99.90;;;;;;4155648;28;20037;-70
2021/03/10 02:33:25;;;;;;;15.15;9.02;;;5.80;99.90;;;;;;4160162;28;20543;-70
2021/03/10 02:35:28;;;;;;;14.88;9.43;;;5.80;99.90;;;;;;4160158;28;20038;-70
2021/03/10 02:37:30;;;;;;;13.02;8.57;;;5.90;99.90;;;;;;4158350;28;20041;-70
2021/03/10 02:39:31;;;;;;;13.48;8.43;;;5.90;99.90;;;;;;4157409;28;20037;-71
2021/03/10 02:41:33;;;;;;;14.25;8.60;;;5.90;99.90;;;;;;4151916;28;20046;-70
2021/03/10 02:43:36;;;;;;;13.85;8.13;;;5.90;99.90;;;;;;4154459;28;20060;-70
2021/03/10 02:45:37;;;;;;;14.10;8.57;;;5.80;99.90;;;;;;4129880;28;20238;-70
2021/03/10 02:47:38;;;;;;;16.00;9.43;;;5.90;99.90;;;;;;4154533;28;20025;-70
2021/03/10 02:49:39;;;;;;;15.43;9.18;;;5.90;99.90;;;;;;4156886;28;20068;-70
2021/03/10 02:51:43;;;;;;;16.48;10.35;;;5.90;99.90;;;;;;4151120;28;20033;-70
2021/03/10 02:53:46;;;;;;;17.33;9.45;;;5.90;99.90;;;;;;4156926;28;20048;-70
2021/03/10 02:55:47;;;;;;;15.90;10.30;;;5.90;99.90;;;;;;4159790;28;20068;-70
2021/03/10 02:57:48;;;;;;;16.15;9.75;;;5.90;99.90;;;;;;4160058;28;20160;-70
2021/03/10 02:59:51;;;;;;;15.50;9.85;;;5.80;99.90;;;;;;4153431;28;20034;-70
2021/03/10 03:01:54;;;;;;;18.15;9.57;;;5.80;99.90;;;;;;4151158;28;20061;-71
2021/03/10 03:03:55;;;;;;;17.52;9.23;;;5.80;99.90;;;;;;4156699;28;20030;-70
2021/03/10 03:05:55;;;;;;;13.65;9.30;;;5.80;99.90;;;;;;4155875;28;20052;-70
2021/03/10 03:07:57;;;;;;;15.25;9.20;;;5.80;99.90;;;;;;4158542;28;20076;-70
2021/03/10 03:10:01;;;;;;;12.93;8.20;;;5.80;99.90;;;;;;4162632;28;20688;-70
2021/03/10 03:12:03;;;;;;;16.58;9.73;;;5.80;99.90;;;;;;4158956;28;20060;-70
2021/03/10 03:14:05;;;;;;;15.60;9.35;;;5.80;99.90;;;;;;4160028;28;20581;-70
2021/03/10 03:16:07;;;;;;;16.25;9.10;;;5.80;99.90;;;;;;4161448;28;20112;-71
2021/03/10 03:18:08;;;;;;;15.98;9.18;;;5.80;99.90;;;;;;4161012;28;20105;-70
2021/03/10 03:20:10;;;;;;;15.07;9.30;;;5.80;99.90;;;;;;4159500;28;20034;-70
2021/03/10 03:22:14;;;;;;;13.55;8.15;;;5.70;99.90;;;;;;4134799;28;20056;-71
2021/03/10 03:24:17;;;;;;;12.95;8.30;;;5.70;99.90;;;;;;4151118;28;20037;-70
2021/03/10 03:26:19;;;;;;;13.02;7.45;;;5.70;99.90;;;;;;4159530;28;20109;-70
2021/03/10 03:28:21;;;;;;;12.77;8.17;;;5.60;99.90;;;;;;4158928;28;20370;-70
2021/03/10 03:30:24;;;;;;;12.55;7.75;;;5.60;99.90;;;;;;4157414;28;20265;-70
2021/03/10 03:32:32;;;;;;;12.75;8.40;;;5.70;99.90;;;;;;4150095;28;20045;-70
2021/03/10 03:34:33;;;;;;;12.13;7.93;;;5.60;99.90;;;;;;4154246;28;20037;-70
2021/03/10 03:36:34;;;;;;;13.10;8.00;;;5.60;99.90;;;;;;4158713;28;21542;-70
2021/03/10 03:38:37;;;;;;;13.25;8.27;;;5.60;99.90;;;;;;4159098;28;20041;-71
2021/03/10 03:40:38;;;;;;;12.85;8.00;;;5.60;99.90;;;;;;4158755;28;20142;-71
2021/03/10 03:42:40;;;;;;;12.50;8.55;;;5.60;99.90;;;;;;4150225;28;20399;-70
2021/03/10 03:44:41;;;;;;;13.60;8.35;;;5.60;99.90;;;;;;4159803;28;20088;-70
2021/03/10 03:46:42;;;;;;;12.75;8.68;;;5.60;99.90;;;;;;4140784;28;20038;-70
2021/03/10 03:48:43;;;;;;;13.18;7.40;;;5.60;99.90;;;;;;4157798;28;20088;-70
2021/03/10 03:50:44;;;;;;;12.48;8.20;;;5.60;99.90;;;;;;4158388;28;20037;-71
2021/03/10 03:52:45;;;;;;;13.32;8.05;;;5.60;99.90;;;;;;4158872;28;20033;-71
2021/03/10 03:54:46;;;;;;;12.73;7.78;;;5.60;99.90;;;;;;4158658;28;20033;-71
2021/03/10 03:56:46;;;;;;;14.35;8.07;;;5.50;99.90;;;;;;4158963;28;20370;-71
2021/03/10 03:58:47;;;;;;;13.13;7.82;;;5.50;99.90;;;;;;4158492;28;20403;-70
2021/03/10 04:00:48;;;;;;;13.00;7.55;;;5.50;99.90;;;;;;4157988;28;20041;-71
2021/03/10 04:02:49;;;;;;;11.38;7.80;;;5.50;99.90;;;;;;4151647;28;20654;-71
2021/03/10 04:04:49;;;;;;;10.80;7.25;;;5.50;99.90;;;;;;4156777;28;20021;-71
2021/03/10 04:06:50;;;;;;;9.90;6.93;;;5.60;99.90;;;;;;4158242;28;20109;-71
2021/03/10 04:08:50;;;;;;;12.52;7.70;;;5.60;99.90;;;;;;4158249;28;20022;-70
2021/03/10 04:10:51;;;;;;;10.32;6.93;;;5.60;99.90;;;;;;4157553;28;20053;-71
2021/03/10 04:12:53;;;;;;;11.18;7.60;;;5.50;99.90;;;;;;4156308;28;20041;-71
2021/03/10 04:14:53;;;;;;;11.35;7.68;;;5.50;99.90;;;;;;4156270;28;20030;-71
2021/03/10 04:16:55;;;;;;;11.32;7.43;;;5.50;99.90;;;;;;4157504;28;20045;-71
2021/03/10 04:18:55;;;;;;;9.25;6.82;;;5.50;99.90;;;;;;4156438;28;20053;-71
2021/03/10 04:20:56;;;;;;;11.05;7.07;;;5.50;99.90;;;;;;4154082;28;20026;-71
2021/03/10 04:22:57;;;;;;;10.23;7.47;;;5.60;99.90;;;;;;4154829;28;20037;-70
2021/03/10 04:24:57;;;;;;;10.98;7.78;;;5.50;99.90;;;;;;4156875;28;20044;-71
2021/03/10 04:26:58;;;;;;;9.55;6.85;;;5.50;99.90;;;;;;4157459;28;20038;-71
2021/03/10 04:28:58;;;;;;;10.02;7.32;;;5.50;99.90;;;;;;4157637;28;20021;-71
2021/03/10 04:30:59;;;;;;;9.98;7.18;;;5.50;99.90;;;;;;4156340;28;20060;-71
2021/03/10 04:33:00;;;;;;;10.15;7.43;;;5.60;99.90;;;;;;4157903;28;20041;-71
2021/03/10 04:35:01;;;;;;;11.30;7.82;;;5.50;99.90;;;;;;4158019;28;20048;-70
2021/03/10 04:37:01;;;;;;;11.10;7.68;;;5.50;99.90;;;;;;4158146;28;20720;-71
2021/03/10 04:39:03;;;;;;;11.77;7.70;;;5.50;99.90;;;;;;4154890;28;20038;-71
2021/03/10 04:41:04;;;;;;;10.15;7.50;;;5.40;99.90;;;;;;4156902;28;20127;-70
2021/03/10 04:43:04;;;;;;;9.32;6.55;;;5.40;99.90;;;;;;4137202;28;20038;-71
2021/03/10 04:45:07;;;;;;;9.07;7.00;;;5.40;99.90;;;;;;4155668;28;20198;-71
2021/03/10 04:47:08;;;;;;;10.45;6.63;;;5.40;99.90;;;;;;4152565;28;20033;-71
2021/03/10 04:49:09;;;;;;;10.15;7.22;;;5.50;99.90;;;;;;4153906;28;20029;-71
2021/03/10 04:51:10;;;;;;;11.25;7.10;;;5.50;99.90;;;;;;4155440;28;20048;-70
2021/03/10 04:53:10;;;;;;;9.75;7.03;;;5.50;99.90;;;;;;4153889;28;20042;-71
2021/03/10 04:55:12;;;;;;;9.50;6.78;;;5.50;99.90;;;;;;4152704;28;20047;-70
2021/03/10 04:57:12;;;;;;;10.25;6.90;;;5.50;99.90;;;;;;4151094;28;20434;-71
2021/03/10 04:59:13;;;;;;;11.23;7.13;;;5.50;99.90;;;;;;4149929;28;20041;-70
2021/03/10 05:01:13;;;;;;;11.60;8.18;;;5.50;99.90;;;;;;4157136;28;20037;-71
2021/03/10 05:03:14;;;;;;;9.90;7.07;;;5.50;99.90;;;;;;4152004;28;20126;-70
2021/03/10 05:05:15;;;;;;;10.82;7.15;;;5.50;99.90;;;;;;4156796;28;20507;-70
2021/03/10 05:07:16;;;;;;;14.88;8.52;;;5.50;99.90;;;;;;4158458;28;20037;-71
2021/03/10 05:09:17;;;;;;;13.32;8.93;;;5.50;99.90;;;;;;4158287;28;20060;-70
2021/03/10 05:11:18;;;;;;;11.93;7.72;;;5.50;99.90;;;;;;4158935;28;20041;-70
2021/03/10 05:13:18;;;;;;;11.60;7.88;;;5.40;99.90;;;;;;4154990;28;20100;-70
2021/03/10 05:15:19;;;;;;;12.43;8.20;;;5.40;99.90;;;;;;4158322;28;20087;-70
2021/03/10 05:17:20;;;;;;;10.70;7.85;;;5.40;99.90;;;;;;4154519;28;20040;-70
2021/03/10 05:19:20;;;;;;;10.88;8.15;;;5.40;99.90;;;;;;4155741;28;20073;-70
2021/03/10 05:21:21;;;;;;;11.38;8.07;;;5.50;99.90;;;;;;4151167;28;20037;-70
2021/03/10 05:23:21;;;;;;;11.45;8.05;;;5.40;99.90;;;;;;4156029;28;20037;-71
2021/03/10 05:25:22;;;;;;;16.15;8.85;;;5.50;99.90;;;;;;4157199;28;20049;-71
2021/03/10 05:27:25;;;;;;;15.85;9.32;;;5.50;99.90;;;;;;4157280;28;20034;-71
2021/03/10 05:29:25;;;;;;;;;;;5.50;99.90;;;;;;4154843;28;20041;-70
2021/03/10 05:31:28;;;;;;;10.77;7.40;;;5.50;99.90;;;;;;4160988;28;19921;-71
2021/03/10 05:33:29;;;;;;;12.07;8.63;;;5.50;99.90;;;;;;4160968;28;20497;-71
2021/03/10 05:35:29;;;;;;;11.55;8.48;;;5.60;99.90;;;;;;4155685;28;20046;-70
2021/03/10 05:37:30;;;;;;;14.75;8.75;;;5.60;99.90;;;;;;4147318;28;20117;-70
2021/03/10 05:39:31;;;;;;;13.75;9.00;;;5.60;99.90;;;;;;4152259;28;20606;-70
2021/03/10 05:41:31;;;;;;;12.52;8.98;;;5.60;99.90;;;;;;4150882;28;20034;-71
2021/03/10 05:43:32;;;;;;;12.75;8.77;;;5.60;99.90;;;;;;4146646;28;20069;-71
2021/03/10 05:45:33;;;;;;;15.98;10.77;;;5.60;99.90;;;;;;4148249;28;20038;-70
2021/03/10 05:47:34;;;;;;;13.85;9.00;;;5.50;99.90;;;;;;4138112;28;20112;-70
2021/03/10 05:49:35;;;;;;;15.60;10.13;;;5.50;99.90;;;;;;4156054;28;20053;-70
2021/03/10 05:51:36;;;;;;;15.05;10.23;;;5.50;99.90;;;;;;4154463;28;20428;-70
2021/03/10 05:53:43;;;;;;;17.00;10.13;;;5.50;99.90;;;;;;4156177;28;20037;-70
2021/03/10 05:55:44;;;;;;;13.90;9.85;;;5.50;99.90;;;;;;4154824;28;20096;-70
2021/03/10 05:57:45;;;;;;;17.38;10.32;;;5.50;99.90;;;;;;4154049;28;20064;-71
2021/03/10 05:59:46;;;;;;;17.27;10.20;;;5.50;99.90;;;;;;4133618;28;20040;-70
2021/03/10 06:01:46;;;;;;;14.15;9.63;;;5.50;99.90;;;;;;4151013;28;20140;-70
2021/03/10 06:04:02;;;;;;;16.05;10.50;;;5.60;99.90;;;;;;4151444;28;20117;-71
2021/03/10 06:06:04;;;;;;;16.58;10.52;;;5.60;99.90;;;;;;4150362;28;20037;-70
2021/03/10 06:08:07;;;;;;;16.23;10.02;;;5.60;99.90;;;;;;4151816;28;20048;-70
2021/03/10 06:10:08;;;;;;;16.52;10.10;;;5.60;99.90;;;;;;4153419;28;20034;-70
2021/03/10 06:12:09;;;;;;;14.60;10.23;;;5.60;99.90;;;;;;4150769;28;20044;-70
2021/03/10 06:14:16;;;;;;;16.48;10.65;;;5.60;99.90;;;;;;4156505;28;20132;-70
2021/03/10 06:16:25;;;;;;;15.82;10.00;;;5.60;99.90;;;;;;4149081;28;20026;-70
2021/03/10 06:18:32;;;;;;;17.20;10.52;;;5.70;99.90;;;;;;4156121;28;20042;-70
2021/03/10 06:20:32;;;;;;;14.80;10.30;;;5.70;99.90;;;;;;4146692;28;20029;-71
2021/03/10 06:22:35;;;;;;;13.80;9.90;;;5.70;99.90;;;;;;4140608;28;20389;-72
2021/03/10 06:24:35;;;;;;;14.15;9.82;;;5.70;99.90;;;;;;4149868;28;20021;-71
2021/03/10 06:26:36;;;;;;;15.90;10.75;;;5.70;99.90;;;;;;4154400;28;20037;-72
2021/03/10 06:28:39;;;;;;;17.45;9.90;;;5.70;99.90;;;;;;4154627;28;20025;-72
2021/03/10 06:30:43;;;;;;;14.35;9.95;;;5.70;99.90;;;;;;4148941;28;20095;-72
2021/03/10 06:32:44;;;;;;;16.42;10.82;;;5.70;99.90;;;;;;4151702;28;20034;-72
2021/03/10 06:34:50;;;;;;;15.60;10.57;;;5.70;99.90;;;;;;4149063;28;20556;-72
2021/03/10 06:36:54;;;;;;;15.70;10.10;;;5.80;99.90;;;;;;4151932;28;20049;-72
2021/03/10 06:39:08;;;;;;;15.95;10.38;;;5.80;99.90;;;;;;4108314;28;20090;-72
2021/03/10 06:41:09;;;;;;;17.13;10.82;;;5.80;99.90;;;;;;4137925;28;20117;-72
2021/03/10 06:43:09;;;;;;;14.85;9.50;;;5.80;99.90;;;;;;4156961;28;20049;-72
2021/03/10 06:45:11;;;;;;;15.63;10.27;;;5.80;99.90;;;;;;4157546;28;20037;-72
2021/03/10 06:47:11;;;;;;;17.00;11.35;;;5.90;99.90;;;;;;4157493;28;20081;-72
2021/03/10 06:49:14;;;;;;;17.83;11.88;;;5.90;99.90;;;;;;4154168;28;20021;-72
2021/03/10 06:51:14;;;;;;;18.05;11.38;;;5.90;99.90;;;;;;4158805;28;20045;-72
2021/03/10 06:53:15;;;;;;;17.95;11.48;;;5.90;99.90;;;;;;4155584;28;20033;-72
2021/03/10 06:55:17;;;;;;;20.42;12.10;;;5.90;99.90;;;;;;4159998;28;20513;-72
2021/03/10 06:57:18;;;;;;;32.50;14.68;;;6.00;99.90;;;;;;4158833;28;20117;-72
2021/03/10 06:59:19;;;;;;;31.60;14.82;;;6.00;99.90;;;;;;4159264;28;20509;-72
2021/03/10 07:01:21;;;;;;;47.70;18.15;;;6.00;99.90;;;;;;4157921;28;20118;-72
2021/03/10 07:03:21;;;;;;;48.63;18.63;;;6.00;99.90;;;;;;4155237;28;20128;-72
2021/03/10 07:05:23;;;;;;;54.95;20.20;;;6.00;99.90;;;;;;4157942;28;20056;-72
2021/03/10 07:07:29;;;;;;;62.92;21.65;;;6.00;99.90;;;;;;4150806;28;20124;-72
2021/03/10 07:09:31;;;;;;;49.90;20.20;;;6.00;99.90;;;;;;4159175;28;20146;-72
2021/03/10 07:11:33;;;;;;;51.38;19.30;;;6.00;99.90;;;;;;4149724;28;20030;-72
2021/03/10 07:13:34;;;;;;;55.28;20.13;;;6.10;99.90;;;;;;4155309;28;20803;-72
2021/03/10 07:15:34;;;;;;;51.90;19.75;;;6.10;99.90;;;;;;4156122;28;20052;-72
2021/03/10 07:17:35;;;;;;;61.72;21.63;;;6.10;99.90;;;;;;4157616;28;20507;-72
2021/03/10 07:19:37;;;;;;;50.40;21.70;;;6.10;99.90;;;;;;4157818;28;20171;-72
2021/03/10 07:22:06;;;;;;;70.30;22.30;;;6.10;99.90;;;;;;4154023;28;20041;-72
2021/03/10 07:24:19;;;;;;;52.65;21.38;;;6.10;99.90;;;;;;4146640;28;20033;-72
2021/03/10 07:26:21;;;;;;;47.03;20.48;;;6.10;99.90;;;;;;4131165;28;20032;-72
2021/03/10 07:28:28;;;;;;;49.92;19.73;;;6.10;99.90;;;;;;4157198;28;20034;-72
2021/03/10 07:30:45;;;;;;;44.97;20.42;;;6.10;99.90;;;;;;4153891;28;20623;-72
2021/03/10 07:32:45;;;;;;;37.95;18.17;;;6.10;99.90;;;;;;4157362;28;20516;-72
2021/03/10 07:34:47;;;;;;;32.90;17.55;;;6.10;99.90;;;;;;4150644;28;20045;-72
2021/03/10 07:36:48;;;;;;;37.20;17.42;;;6.10;99.90;;;;;;4151553;28;20549;-72
2021/03/10 07:38:49;;;;;;;35.25;18.58;;;6.20;99.90;;;;;;4154003;28;20077;-72
2021/03/10 07:40:54;;;;;;;34.13;17.95;;;6.20;99.90;;;;;;4153030;28;20697;-72
2021/03/10 07:42:56;;;;;;;35.42;18.92;;;6.20;99.90;;;;;;4152139;28;20497;-72
2021/03/10 07:44:57;;;;;;;38.55;20.83;;;6.20;99.90;;;;;;4152234;28;20048;-72
2021/03/10 07:47:08;;;;;;;32.78;20.05;;;6.30;99.90;;;;;;4154309;28;20044;-72
2021/03/10 07:49:24;;;;;;;40.80;22.48;;;6.30;99.90;;;;;;4149573;28;20121;-72
2021/03/10 07:51:36;;;;;;;39.00;21.42;;;6.30;99.90;;;;;;4144836;28;20037;-72
2021/03/10 07:53:37;;;;;;;37.53;22.65;;;6.30;99.90;;;;;;4172149;28;20119;-73
2021/03/10 07:55:42;;;;;;;39.97;22.38;;;6.40;99.90;;;;;;4138598;28;20092;-72
2021/03/10 07:57:53;;;;;;;42.22;25.52;;;6.40;99.90;;;;;;4152862;28;20676;-72
2021/03/10 07:59:59;;;;;;;38.03;23.10;;;6.40;99.90;;;;;;4157930;28;20038;-72
2021/03/10 08:02:02;;;;;;;44.92;23.40;;;6.40;99.90;;;;;;4152922;28;20041;-72
2021/03/10 08:04:17;;;;;;;45.80;25.15;;;6.50;99.90;;;;;;4157482;28;20026;-72
2021/03/10 08:06:18;;;;;;;44.00;26.08;;;6.50;99.90;;;;;;4157438;28;20042;-72
2021/03/10 08:08:18;;;;;;;42.08;24.63;;;6.50;99.90;;;;;;4156414;28;20048;-72
2021/03/10 08:10:26;;;;;;;45.20;26.50;;;6.50;99.90;;;;;;4138953;28;20030;-72
2021/03/10 08:12:34;;;;;;;48.33;25.60;;;6.50;99.90;;;;;;4155964;28;20033;-72
2021/03/10 08:14:45;;;;;;;47.05;27.17;;;6.50;99.90;;;;;;4155767;28;20049;-72
2021/03/10 08:16:49;;;;;;;45.67;27.45;;;6.50;99.90;;;;;;4157382;28;20036;-72
2021/03/10 08:18:50;;;;;;;45.95;26.35;;;6.60;99.90;;;;;;4154920;28;20568;-72
2021/03/10 08:20:51;;;;;;;48.20;27.67;;;6.60;99.90;;;;;;4155337;28;20116;-73
2021/03/10 08:22:52;;;;;;;50.35;28.60;;;6.60;99.90;;;;;;4156949;28;20106;-72
2021/03/10 08:24:54;;;;;;;53.92;30.27;;;6.60;99.90;;;;;;4157223;28;20037;-72
2021/03/10 08:27:00;;;;;;;52.35;28.65;;;6.60;99.90;;;;;;4158053;28;20030;-72
2021/03/10 08:29:03;;;;;;;47.67;28.20;;;6.60;99.90;;;;;;4154536;28;20095;-72
2021/03/10 08:31:06;;;;;;;50.60;30.85;;;6.60;99.90;;;;;;4150857;28;20038;-72
2021/03/10 08:33:08;;;;;;;51.85;30.73;;;6.60;99.90;;;;;;4154470;28;20048;-72
2021/03/10 08:35:18;;;;;;;48.00;29.37;;;6.60;99.90;;;;;;4161505;28;20117;-72
2021/03/10 08:37:19;;;;;;;47.22;28.55;;;6.70;99.90;;;;;;4153671;28;20028;-72
2021/03/10 08:39:20;;;;;;;47.55;28.58;;;6.70;99.90;;;;;;4153346;28;20048;-73
2021/03/10 08:41:21;;;;;;;47.58;28.02;;;6.70;99.90;;;;;;4152656;28;20049;-72
2021/03/10 08:43:21;;;;;;;50.05;29.38;;;6.80;99.90;;;;;;4157200;28;20636;-72
2021/03/10 08:45:42;;;;;;;55.03;32.05;;;6.80;99.90;;;;;;4151855;28;20112;-72
2021/03/10 08:47:43;;;;;;;58.67;31.55;;;6.80;99.90;;;;;;4152554;28;20111;-72
2021/03/10 08:49:49;;;;;;;50.65;29.67;;;6.90;99.90;;;;;;4155087;28;20045;-72
2021/03/10 08:52:05;;;;;;;53.70;29.98;;;6.90;99.90;;;;;;4153486;28;20034;-72
2021/03/10 08:54:07;;;;;;;53.60;28.38;;;6.90;99.90;;;;;;4149977;28;20034;-72
2021/03/10 08:56:08;;;;;;;51.55;31.00;;;6.90;99.90;;;;;;4157142;28;20029;-73
2021/03/10 08:58:11;;;;;;;52.40;30.70;;;6.90;99.90;;;;;;4154447;28;20576;-72
2021/03/10 09:00:20;;;;;;;53.53;31.40;;;7.00;99.90;;;;;;4157232;28;20033;-73
2021/03/10 09:02:33;;;;;;;48.33;29.00;;;6.90;99.90;;;;;;4160040;28;20033;-72
2021/03/10 09:04:33;;;;;;;55.45;30.85;;;7.00;99.90;;;;;;4156518;28;20021;-72
2021/03/10 09:06:36;;;;;;;50.70;29.38;;;7.00;99.90;;;;;;4156601;28;20033;-73
2021/03/10 09:08:37;;;;;;;55.65;32.17;;;7.00;99.90;;;;;;4155954;28;20021;-72
2021/03/10 09:10:45;;;;;;;53.05;29.58;;;7.00;99.90;;;;;;4155696;28;20417;-72
2021/03/10 09:12:50;;;;;;;50.47;29.05;;;7.10;99.90;;;;;;4156586;28;20033;-72
2021/03/10 09:14:51;;;;;;;55.60;31.02;;;7.10;99.90;;;;;;4153929;28;20040;-72
2021/03/10 09:16:59;;;;;;;50.75;31.13;;;7.10;99.90;;;;;;4155000;28;20108;-72
2021/03/10 09:19:01;;;;;;;50.75;29.98;;;7.20;99.90;;;;;;4148837;28;20030;-72
2021/03/10 09:21:03;;;;;;;47.85;29.27;;;7.20;99.90;;;;;;4151043;28;20034;-73
2021/03/10 09:23:10;;;;;;;49.33;28.95;;;7.20;99.90;;;;;;4149976;28;20112;-72
2021/03/10 09:25:16;;;;;;;56.15;33.15;;;7.30;99.90;;;;;;4154425;28;20101;-72
2021/03/10 09:27:27;;;;;;;55.10;31.45;;;7.20;99.90;;;;;;4143323;28;20552;-72
2021/03/10 09:29:28;;;;;;;57.28;33.85;;;7.30;99.90;;;;;;4150489;28;20406;-72
2021/03/10 09:31:29;;;;;;;53.50;32.08;;;7.30;99.90;;;;;;4156506;28;20017;-72
2021/03/10 09:33:31;;;;;;;53.10;31.75;;;7.30;99.90;;;;;;4155575;28;20041;-72
2021/03/10 09:35:35;;;;;;;56.05;33.35;;;7.30;99.90;;;;;;4154149;28;20042;-72
2021/03/10 09:37:43;;;;;;;57.85;33.05;;;7.40;99.90;;;;;;4155825;28;20049;-72
2021/03/10 09:39:48;;;;;;;56.25;32.53;;;7.40;99.90;;;;;;4155812;28;20030;-72
2021/03/10 09:41:49;;;;;;;60.28;32.72;;;7.40;99.90;;;;;;4150981;28;20037;-72
2021/03/10 09:44:01;;;;;;;53.22;31.98;;;7.40;99.90;;;;;;4156468;28;20422;-72
2021/03/10 09:46:06;;;;;;;54.90;32.50;;;7.40;99.90;;;;;;4153689;28;20030;-72
2021/03/10 09:48:11;;;;;;;50.63;30.35;;;7.40;99.90;;;;;;4157007;28;20080;-72
2021/03/10 09:50:11;;;;;;;54.45;32.00;;;7.40;99.90;;;;;;4154847;28;20440;-72
2021/03/10 09:52:15;;;;;;;51.30;31.25;;;7.50;99.90;;;;;;4148286;28;20034;-72
2021/03/10 09:54:16;;;;;;;50.17;31.48;;;7.60;99.90;;;;;;4154377;28;20041;-72
2021/03/10 09:56:20;;;;;;;51.13;29.92;;;7.60;99.90;;;;;;4151925;28;20405;-72
2021/03/10 09:58:21;;;;;;;51.22;31.10;;;7.70;99.90;;;;;;4155762;28;20037;-72
2021/03/10 10:00:22;;;;;;;53.40;30.85;;;7.70;99.90;;;;;;4154093;28;20036;-72
2021/03/10 10:02:23;;;;;;;51.20;30.95;;;7.80;99.90;;;;;;4154386;28;20033;-72
2021/03/10 10:04:28;;;;;;;59.97;33.00;;;7.80;99.90;;;;;;4153251;28;20558;-72
2021/03/10 10:06:29;;;;;;;57.85;33.47;;;7.90;99.90;;;;;;4150265;28;20034;-72
2021/03/10 10:08:29;;;;;;;55.85;32.28;;;7.90;99.90;;;;;;4156730;28;20089;-72
2021/03/10 10:10:31;;;;;;;56.08;31.83;;;7.90;99.90;;;;;;4160851;28;20673;-72
2021/03/10 10:12:42;;;;;;;54.72;31.38;;;7.90;99.90;;;;;;4149191;28;20660;-72
2021/03/10 10:14:43;;;;;;;52.70;30.40;;;8.00;99.90;;;;;;4140088;28;20379;-72
2021/03/10 10:16:44;;;;;;;55.33;31.17;;;8.10;99.90;;;;;;4157780;28;20030;-72
2021/03/10 10:18:46;;;;;;;52.17;30.35;;;8.10;99.90;;;;;;4153678;28;20745;-72
2021/03/10 10:20:47;;;;;;;;;;;8.10;99.90;;;;;;4157901;28;20512;-72
2021/03/10 10:22:49;;;;;;;50.17;26.65;;;8.20;99.90;;;;;;4157344;28;19909;-72
2021/03/10 10:24:50;;;;;;;48.13;27.30;;;8.20;99.90;;;;;;4156972;28;20029;-72
2021/03/10 10:26:51;;;;;;;44.10;26.80;;;8.30;99.90;;;;;;4150458;28;20508;-72
2021/03/10 10:28:51;;;;;;;40.63;25.35;;;8.30;99.90;;;;;;4153943;28;20083;-72
2021/03/10 10:30:53;;;;;;;40.83;25.10;;;8.30;99.90;;;;;;4157635;28;20119;-72
2021/03/10 10:32:53;;;;;;;38.10;24.30;;;8.30;99.90;;;;;;4158437;28;20088;-72
2021/03/10 10:34:55;;;;;;;40.78;23.60;;;8.30;99.90;;;;;;4159810;28;20049;-72
2021/03/10 10:36:55;;;;;;;42.47;24.83;;;8.40;99.90;;;;;;4157881;28;20128;-72